createdAt,value
2018-06-29T00:01:06.345Z,99.49
2018-06-29T00:02:37.916Z,98.19
2018-06-29T00:04:09.489Z,98.29
2018-06-29T00:05:41.161Z,97.91
2018-06-29T00:07:12.778Z,97.04
2018-06-29T00:08:44.206Z,96.18
2018-06-29T00:10:15.778Z,96.22
2018-06-29T00:11:47.351Z,96.70
2018-06-29T00:13:18.924Z,96.70
2018-06-29T00:14:50.496Z,95.55
2018-06-29T00:16:22.068Z,95.12
2018-06-29T00:17:53.640Z,94.64
2018-06-29T00:19:25.217Z,94.54
2018-06-29T00:20:56.786Z,94.31
2018-06-29T00:22:28.358Z,94.98
2018-06-29T00:24:00.582Z,95.55
2018-06-29T00:25:31.504Z,95.84
2018-06-29T00:27:03.076Z,96.03
2018-06-29T00:28:34.650Z,97.42
2018-06-29T00:30:06.223Z,98.10
2018-06-29T00:31:37.794Z,98.48
2018-06-29T00:33:09.372Z,98.48
2018-06-29T00:34:40.940Z,98.67
2018-06-29T00:36:12.515Z,99.87
2018-06-29T00:37:44.085Z,99.77
2018-06-29T00:39:15.658Z,99.99
2018-06-29T00:40:47.231Z,99.77
2018-06-29T00:42:18.904Z,99.99
2018-06-29T00:43:50.377Z,99.99
2018-06-29T00:45:21.948Z,99.49
2018-06-29T00:46:53.521Z,99.49
2018-06-29T00:48:25.093Z,99.96
2018-06-29T00:49:56.666Z,99.99
2018-06-29T00:51:28.239Z,99.99
2018-06-29T00:52:59.811Z,99.99
2018-06-29T00:54:31.647Z,99.99
2018-06-29T00:56:02.956Z,99.99
2018-06-29T00:57:34.528Z,99.99
2018-06-29T00:59:06.101Z,99.99
2018-06-29T01:00:37.772Z,99.99
2018-06-29T01:02:09.244Z,99.99
2018-06-29T01:03:40.819Z,99.99
2018-06-29T01:05:12.389Z,99.99
2018-06-29T01:06:43.961Z,99.99
2018-06-29T01:08:15.560Z,99.99
2018-06-29T01:09:47.109Z,99.99
2018-06-29T01:11:18.677Z,99.99
2018-06-29T01:12:50.249Z,99.99
2018-06-29T01:14:21.821Z,99.99
2018-06-29T01:15:53.393Z,99.99
2018-06-29T01:17:24.965Z,99.99
2018-06-29T01:18:56.637Z,99.99
2018-06-29T01:20:28.109Z,99.99
2018-06-29T01:21:59.681Z,99.99
2018-06-29T01:23:31.252Z,99.99
2018-06-29T01:25:02.980Z,99.99
2018-06-29T01:26:34.395Z,99.99
2018-06-29T01:28:05.997Z,99.99
2018-06-29T01:29:37.540Z,99.99
2018-06-29T01:31:09.110Z,99.99
2018-06-29T01:32:40.682Z,99.99
2018-06-29T01:34:12.258Z,99.99
2018-06-29T01:35:43.825Z,99.99
2018-06-29T01:37:15.497Z,99.99
2018-06-29T01:38:46.968Z,99.99
2018-06-29T01:40:18.540Z,99.99
2018-06-29T01:41:50.111Z,99.99
2018-06-29T01:43:21.682Z,99.99
2018-06-29T01:44:53.254Z,99.99
2018-06-29T01:46:24.825Z,99.99
2018-06-29T01:47:56.398Z,99.99
2018-06-29T01:49:27.972Z,99.99
2018-06-29T01:50:59.542Z,99.99
2018-06-29T01:52:31.167Z,99.99
2018-06-29T01:54:02.683Z,99.99
2018-06-29T01:55:34.958Z,99.99
2018-06-29T01:57:05.826Z,99.99
2018-06-29T01:58:37.403Z,99.99
2018-06-29T02:00:08.968Z,99.99
2018-06-29T02:01:40.789Z,99.99
2018-06-29T02:03:12.110Z,99.99
2018-06-29T02:04:43.681Z,99.99
2018-06-29T02:06:15.252Z,99.99
2018-06-29T02:07:46.824Z,99.99
2018-06-29T02:09:18.394Z,99.99
2018-06-29T02:10:49.968Z,99.99
2018-06-29T02:12:21.537Z,99.99
2018-06-29T02:13:53.208Z,99.99
2018-06-29T02:15:24.679Z,99.99
2018-06-29T02:16:56.250Z,99.99
2018-06-29T02:18:27.820Z,99.99
2018-06-29T02:19:59.391Z,99.99
2018-06-29T02:21:30.962Z,99.49
2018-06-29T02:23:02.536Z,97.91
2018-06-29T02:24:34.106Z,98.53
2018-06-29T02:26:05.677Z,99.87
2018-06-29T02:27:37.252Z,98.82
2018-06-29T02:29:08.819Z,98.33
2018-06-29T02:30:40.470Z,97.76
2018-06-29T02:32:12.059Z,98.72
2018-06-29T02:33:43.547Z,98.62
2018-06-29T02:35:15.101Z,99.99
2018-06-29T02:36:46.682Z,99.99
2018-06-29T02:38:18.244Z,99.99
2018-06-29T02:39:49.815Z,99.99
2018-06-29T02:41:21.386Z,99.99
2018-06-29T02:42:52.957Z,99.99
2018-06-29T02:44:24.529Z,99.99
2018-06-29T02:45:56.100Z,99.99
2018-06-29T02:47:27.671Z,99.99
2018-06-29T02:48:59.242Z,99.99
2018-06-29T02:50:30.914Z,99.99
2018-06-29T02:52:02.385Z,99.99
2018-06-29T02:53:33.960Z,99.99
2018-06-29T02:55:05.527Z,99.99
2018-06-29T02:56:37.099Z,99.20
2018-06-29T02:58:08.669Z,98.43
2018-06-29T02:59:40.240Z,95.98
2018-06-29T03:01:11.811Z,95.70
2018-06-29T03:02:43.387Z,93.73
2018-06-29T03:04:14.954Z,93.25
2018-06-29T03:05:46.524Z,91.66
2018-06-29T03:07:18.095Z,90.80
2018-06-29T03:08:49.771Z,92.19
2018-06-29T03:10:21.237Z,91.28
2018-06-29T03:11:52.809Z,90.70
2018-06-29T03:13:24.380Z,90.07
2018-06-29T03:14:55.951Z,89.64
2018-06-29T03:16:27.527Z,90.12
2018-06-29T03:17:59.094Z,89.54
2018-06-29T03:19:30.670Z,88.73
2018-06-29T03:21:02.239Z,88.63
2018-06-29T03:22:33.812Z,88.82
2018-06-29T03:24:05.382Z,88.44
2018-06-29T03:25:36.952Z,89.26
2018-06-29T03:27:08.875Z,90.03
2018-06-29T03:28:40.096Z,90.66
2018-06-29T03:30:11.668Z,90.12
2018-06-29T03:31:43.242Z,89.36
2018-06-29T03:33:14.811Z,89.45
2018-06-29T03:34:46.383Z,89.60
2018-06-29T03:36:17.955Z,90.51
2018-06-29T03:37:49.527Z,89.54
2018-06-29T03:39:21.099Z,90.75
2018-06-29T03:40:52.671Z,91.13
2018-06-29T03:42:24.242Z,90.75
2018-06-29T03:43:55.813Z,91.42
2018-06-29T03:45:27.487Z,90.37
2018-06-29T03:46:58.957Z,90.46
2018-06-29T03:48:30.529Z,90.03
2018-06-29T03:50:02.100Z,89.31
2018-06-29T03:51:33.672Z,90.03
2018-06-29T03:53:05.242Z,88.78
2018-06-29T03:54:36.815Z,89.36
2018-06-29T03:56:08.386Z,90.37
2018-06-29T03:57:40.208Z,90.08
2018-06-29T03:59:11.529Z,89.36
2018-06-29T04:00:43.101Z,89.69
2018-06-29T04:02:14.672Z,89.36
2018-06-29T04:03:46.344Z,89.36
2018-06-29T04:05:17.818Z,89.54
2018-06-29T04:06:49.386Z,89.12
2018-06-29T04:08:20.958Z,89.50
2018-06-29T04:09:52.530Z,89.79
2018-06-29T04:11:24.101Z,90.08
2018-06-29T04:12:55.737Z,88.59
2018-06-29T04:14:27.244Z,89.07
2018-06-29T04:15:58.815Z,88.54
2018-06-29T04:17:30.387Z,89.98
2018-06-29T04:19:01.959Z,89.50
2018-06-29T04:20:33.530Z,89.98
2018-06-29T04:22:05.205Z,88.64
2018-06-29T04:23:36.674Z,90.08
2018-06-29T04:25:08.244Z,88.73
2018-06-29T04:26:39.816Z,88.06
2018-06-29T04:28:11.391Z,89.12
2018-06-29T04:29:42.959Z,89.31
2018-06-29T04:31:14.530Z,89.31
2018-06-29T04:32:46.155Z,89.31
2018-06-29T04:34:17.673Z,88.73
2018-06-29T04:35:49.244Z,88.45
2018-06-29T04:37:20.816Z,88.73
2018-06-29T04:38:52.387Z,89.94
2018-06-29T04:40:24.059Z,89.26
2018-06-29T04:41:55.530Z,88.93
2018-06-29T04:43:27.101Z,89.12
2018-06-29T04:44:58.672Z,88.79
2018-06-29T04:46:30.245Z,89.07
2018-06-29T04:48:01.815Z,89.26
2018-06-29T04:49:33.386Z,88.45
2018-06-29T04:51:04.957Z,88.88
2018-06-29T04:52:36.528Z,88.59
2018-06-29T04:54:08.100Z,89.65
2018-06-29T04:55:39.671Z,90.75
2018-06-29T04:57:11.242Z,89.26
2018-06-29T04:58:43.216Z,88.31
2018-06-29T05:00:14.386Z,88.88
2018-06-29T05:01:45.956Z,88.79
2018-06-29T05:03:17.527Z,88.88
2018-06-29T05:04:49.100Z,88.79
2018-06-29T05:06:20.669Z,88.02
2018-06-29T05:07:52.240Z,87.44
2018-06-29T05:09:23.811Z,88.06
2018-06-29T05:10:55.382Z,87.49
2018-06-29T05:12:26.954Z,86.91
2018-06-29T05:13:58.528Z,87.82
2018-06-29T05:15:30.134Z,88.31
2018-06-29T05:17:01.767Z,87.05
2018-06-29T05:18:33.238Z,87.44
2018-06-29T05:20:04.809Z,87.35
2018-06-29T05:21:36.380Z,87.82
2018-06-29T05:23:07.954Z,88.69
2018-06-29T05:24:39.523Z,88.49
2018-06-29T05:26:11.093Z,88.49
2018-06-29T05:27:42.664Z,88.40
2018-06-29T05:29:14.485Z,88.02
2018-06-29T05:30:45.806Z,88.02
2018-06-29T05:32:17.378Z,86.77
2018-06-29T05:33:48.948Z,86.96
2018-06-29T05:35:20.620Z,87.82
2018-06-29T05:36:52.090Z,87.63
2018-06-29T05:38:23.662Z,87.05
2018-06-29T05:39:55.232Z,87.35
2018-06-29T05:41:26.825Z,86.87
2018-06-29T05:42:58.376Z,86.77
2018-06-29T05:44:29.948Z,87.15
2018-06-29T05:46:01.516Z,86.96
2018-06-29T05:47:33.087Z,86.77
2018-06-29T05:49:04.658Z,86.68
2018-06-29T05:50:36.229Z,87.21
2018-06-29T05:52:07.802Z,87.88
2018-06-29T05:53:39.471Z,89.03
2018-06-29T05:55:10.941Z,89.32
2018-06-29T05:56:42.512Z,90.14
2018-06-29T05:58:14.083Z,89.41
2018-06-29T05:59:45.654Z,89.79
2018-06-29T06:01:17.225Z,90.37
2018-06-29T06:02:48.797Z,89.89
2018-06-29T06:04:20.367Z,90.42
2018-06-29T06:05:51.938Z,89.51
2018-06-29T06:07:23.509Z,89.94
2018-06-29T06:08:55.079Z,90.42
2018-06-29T06:10:26.651Z,90.81
2018-06-29T06:11:58.321Z,91.09
2018-06-29T06:13:29.841Z,91.09
2018-06-29T06:15:01.365Z,90.90
2018-06-29T06:16:32.932Z,91.38
2018-06-29T06:18:04.503Z,91.48
2018-06-29T06:19:36.074Z,92.05
2018-06-29T06:21:07.645Z,92.01
2018-06-29T06:22:39.217Z,92.20
2018-06-29T06:24:10.789Z,92.39
2018-06-29T06:25:42.357Z,93.35
2018-06-29T06:27:13.928Z,93.73
2018-06-29T06:28:45.499Z,94.12
2018-06-29T06:30:17.421Z,94.17
2018-06-29T06:31:48.640Z,94.35
2018-06-29T06:33:20.211Z,95.51
2018-06-29T06:34:51.783Z,95.12
2018-06-29T06:36:23.352Z,94.45
2018-06-29T06:37:54.924Z,94.07
2018-06-29T06:39:26.496Z,94.74
2018-06-29T06:40:58.065Z,94.55
2018-06-29T06:42:29.635Z,94.55
2018-06-29T06:44:01.207Z,94.84
2018-06-29T06:45:32.777Z,94.17
2018-06-29T06:47:04.383Z,94.55
2018-06-29T06:48:36.021Z,94.64
2018-06-29T06:50:07.489Z,95.31
2018-06-29T06:51:39.058Z,95.31
2018-06-29T06:53:10.628Z,94.45
2018-06-29T06:56:13.770Z,93.98
2018-06-29T06:57:45.341Z,94.02
2018-06-29T06:59:16.910Z,94.07
2018-06-29T07:00:48.481Z,93.63
2018-06-29T07:02:20.055Z,93.78
2018-06-29T07:03:51.621Z,94.26
2018-06-29T07:05:23.191Z,93.88
2018-06-29T07:06:54.763Z,93.69
2018-06-29T07:08:26.433Z,94.21
2018-06-29T07:09:57.903Z,93.98
2018-06-29T07:11:29.474Z,94.26
2018-06-29T07:13:01.049Z,94.45
2018-06-29T07:14:32.617Z,94.74
2018-06-29T07:16:04.184Z,94.12
2018-06-29T07:17:35.755Z,93.06
2018-06-29T07:19:07.324Z,93.16
2018-06-29T07:20:38.896Z,94.35
2018-06-29T07:22:10.467Z,94.74
2018-06-29T07:23:42.037Z,95.12
2018-06-29T07:25:13.606Z,94.74
2018-06-29T07:26:45.727Z,94.93
2018-06-29T07:28:16.749Z,94.64
2018-06-29T07:29:48.317Z,94.84
2018-06-29T07:31:19.888Z,95.22
2018-06-29T07:32:51.458Z,95.22
2018-06-29T07:34:23.028Z,95.22
2018-06-29T07:35:54.600Z,95.60
2018-06-29T07:37:26.169Z,95.51
2018-06-29T07:38:57.739Z,95.12
2018-06-29T07:40:29.310Z,95.70
2018-06-29T07:42:00.879Z,95.79
2018-06-29T07:43:32.450Z,95.79
2018-06-29T07:45:04.120Z,95.89
2018-06-29T07:46:35.642Z,96.99
2018-06-29T07:48:07.160Z,95.94
2018-06-29T07:49:38.731Z,96.42
2018-06-29T07:51:10.300Z,96.61
2018-06-29T07:52:41.872Z,96.75
2018-06-29T07:54:13.441Z,96.13
2018-06-29T07:55:45.012Z,96.51
2018-06-29T07:57:16.585Z,96.03
2018-06-29T07:58:48.271Z,96.51
2018-06-29T08:00:19.721Z,96.42
2018-06-29T08:01:51.291Z,95.89
2018-06-29T08:03:22.961Z,95.94
2018-06-29T08:04:54.431Z,95.70
2018-06-29T08:06:26.002Z,95.22
2018-06-29T08:07:57.571Z,94.93
2018-06-29T08:09:29.140Z,94.26
2018-06-29T08:11:00.712Z,94.17
2018-06-29T08:12:32.282Z,94.17
2018-06-29T08:14:03.850Z,94.93
2018-06-29T08:15:35.421Z,95.60
2018-06-29T08:17:06.990Z,95.51
2018-06-29T08:18:38.560Z,95.60
2018-06-29T08:20:10.129Z,95.89
2018-06-29T08:21:41.800Z,95.98
2018-06-29T08:23:13.270Z,95.89
2018-06-29T08:24:44.838Z,95.60
2018-06-29T08:26:16.408Z,95.60
2018-06-29T08:27:47.978Z,95.60
2018-06-29T08:29:19.548Z,95.89
2018-06-29T08:30:51.121Z,96.08
2018-06-29T08:32:22.689Z,95.89
2018-06-29T08:33:54.407Z,95.22
2018-06-29T08:35:25.828Z,95.12
2018-06-29T08:36:57.397Z,93.98
2018-06-29T08:38:28.968Z,94.07
2018-06-29T08:40:00.637Z,94.35
2018-06-29T08:41:32.107Z,94.26
2018-06-29T08:43:03.676Z,95.41
2018-06-29T08:44:35.246Z,95.51
2018-06-29T08:46:06.817Z,95.41
2018-06-29T08:47:38.386Z,95.51
2018-06-29T08:49:09.956Z,95.31
2018-06-29T08:50:41.525Z,95.51
2018-06-29T08:52:13.102Z,95.31
2018-06-29T08:53:44.666Z,95.31
2018-06-29T08:55:16.235Z,95.60
2018-06-29T08:56:47.805Z,95.31
2018-06-29T08:58:19.730Z,95.89
2018-06-29T08:59:50.944Z,95.98
2018-06-29T09:01:22.515Z,96.22
2018-06-29T09:02:54.084Z,96.42
2018-06-29T09:04:25.654Z,96.13
2018-06-29T09:05:57.225Z,95.75
2018-06-29T09:07:28.794Z,96.03
2018-06-29T09:09:00.366Z,95.84
2018-06-29T09:10:31.934Z,96.03
2018-06-29T09:12:03.504Z,95.94
2018-06-29T09:13:35.073Z,95.98
2018-06-29T09:15:06.647Z,95.84
2018-06-29T09:16:38.313Z,95.70
2018-06-29T09:18:09.783Z,95.51
2018-06-29T09:19:41.352Z,96.08
2018-06-29T09:21:12.922Z,96.13
2018-06-29T09:22:44.491Z,97.38
2018-06-29T09:24:16.065Z,96.80
2018-06-29T09:25:47.632Z,97.09
2018-06-29T09:27:19.200Z,97.95
2018-06-29T09:28:50.772Z,97.66
2018-06-29T09:30:22.341Z,97.66
2018-06-29T09:31:53.910Z,97.18
2018-06-29T09:33:25.479Z,96.89
2018-06-29T09:34:57.149Z,96.89
2018-06-29T09:36:28.671Z,97.56
2018-06-29T09:38:00.188Z,97.85
2018-06-29T09:39:31.758Z,96.70
2018-06-29T09:41:03.328Z,96.89
2018-06-29T09:42:34.913Z,96.70
2018-06-29T09:44:06.522Z,97.56
2018-06-29T09:45:38.092Z,97.52
2018-06-29T09:47:09.662Z,98.14
2018-06-29T09:48:41.534Z,98.19
2018-06-29T09:50:12.951Z,98.00
2018-06-29T09:51:44.317Z,97.38
2018-06-29T09:53:15.986Z,97.61
2018-06-29T09:54:47.455Z,97.90
2018-06-29T09:56:19.028Z,98.19
2018-06-29T09:57:50.594Z,98.19
2018-06-29T09:59:22.164Z,98.47
2018-06-29T10:00:55.410Z,97.66
2018-06-29T10:02:31.688Z,97.80
2018-06-29T10:03:56.872Z,97.85
2018-06-29T10:05:28.443Z,96.99
2018-06-29T10:07:00.316Z,95.22
2018-06-29T10:08:32.115Z,93.35
2018-06-29T10:10:03.153Z,91.86
2018-06-29T10:11:34.827Z,90.42
2018-06-29T10:13:06.495Z,89.27
2018-06-29T10:14:37.867Z,89.32
2018-06-29T10:16:09.433Z,88.65
2018-06-29T10:17:41.004Z,88.65
2018-06-29T10:19:12.575Z,88.55
2018-06-29T10:22:16.246Z,87.35
2018-06-29T10:25:19.562Z,87.11
2018-06-29T10:26:50.430Z,87.01
2018-06-29T10:29:54.182Z,87.78
2018-06-29T10:31:25.247Z,86.87
2018-06-29T10:32:57.247Z,86.96
2018-06-29T10:34:28.368Z,86.33
2018-06-29T10:35:59.908Z,85.47
2018-06-29T10:37:31.435Z,84.12
2018-06-29T10:39:03.008Z,84.55
2018-06-29T10:40:35.111Z,83.78
2018-06-29T10:42:06.153Z,83.97
2018-06-29T10:43:37.727Z,83.20
2018-06-29T10:45:09.503Z,83.01
2018-06-29T10:48:12.449Z,80.94
2018-06-29T10:49:44.298Z,82.29
2018-06-29T10:52:47.805Z,80.54
2018-06-29T10:54:18.751Z,78.56
2018-06-29T10:55:50.319Z,79.03
2018-06-29T10:57:22.099Z,77.26
2018-06-29T10:58:53.469Z,77.83
2018-06-29T11:00:25.043Z,77.53
2018-06-29T11:01:56.821Z,76.82
2018-06-29T11:03:28.195Z,77.59
2018-06-29T11:04:59.775Z,76.53
2018-06-29T11:08:03.126Z,77.46
2018-06-29T11:09:34.554Z,77.46
2018-06-29T11:11:06.437Z,77.11
2018-06-29T11:12:38.789Z,76.63
2018-06-29T11:14:09.530Z,75.51
2018-06-29T11:15:40.804Z,75.51
2018-06-29T11:17:12.684Z,75.67
2018-06-29T11:18:44.262Z,76.06
2018-06-29T11:20:15.614Z,75.80
2018-06-29T11:23:18.712Z,76.67
2018-06-29T11:24:50.272Z,75.28
2018-06-29T11:26:22.143Z,75.03
2018-06-29T11:27:53.416Z,74.84
2018-06-29T11:29:25.012Z,75.38
2018-06-29T11:30:57.102Z,75.67
2018-06-29T11:35:31.301Z,73.05
2018-06-29T11:38:34.458Z,74.20
2018-06-29T11:40:06.236Z,73.43
2018-06-29T11:43:10.693Z,74.01
2018-06-29T11:44:41.072Z,72.56
2018-06-29T11:46:12.354Z,73.24
2018-06-29T11:47:43.975Z,72.89
2018-06-29T11:49:16.491Z,72.41
2018-06-29T11:50:47.236Z,71.77
2018-06-29T11:52:18.659Z,71.03
2018-06-29T11:55:21.815Z,70.22
2018-06-29T11:56:53.598Z,69.97
2018-06-29T11:59:56.754Z,68.43
2018-06-29T12:01:28.232Z,68.91
2018-06-29T12:02:59.771Z,68.43
2018-06-29T12:04:31.293Z,68.59
2018-06-29T12:06:03.071Z,68.49
2018-06-29T12:07:34.753Z,69.55
2018-06-29T12:12:09.717Z,69.58
2018-06-29T12:15:12.379Z,67.33
2018-06-29T12:16:43.923Z,68.59
2018-06-29T12:18:15.502Z,68.43
2018-06-29T12:21:19.297Z,67.33
2018-06-29T12:22:50.244Z,68.19
2018-06-29T12:24:21.839Z,66.14
2018-06-29T12:25:53.417Z,65.37
2018-06-29T12:27:24.982Z,65.92
2018-06-29T12:28:57.298Z,64.79
2018-06-29T12:30:28.142Z,63.92
2018-06-29T12:33:31.301Z,64.63
2018-06-29T12:35:02.998Z,64.18
2018-06-29T12:36:34.483Z,63.08
2018-06-29T12:39:37.722Z,61.47
2018-06-29T12:41:09.410Z,62.12
2018-06-29T12:42:40.827Z,64.01
2018-06-29T12:44:12.370Z,64.63
2018-06-29T12:45:44.554Z,65.47
2018-06-29T12:47:16.061Z,62.73
2018-06-29T12:51:50.269Z,61.37
2018-06-29T12:53:21.850Z,61.44
2018-06-29T12:54:53.642Z,61.73
2018-06-29T12:56:25.517Z,61.86
2018-06-29T12:57:56.769Z,61.60
2018-06-29T12:59:28.187Z,58.92
2018-06-29T13:00:59.962Z,58.14
2018-06-29T13:04:02.947Z,58.12
2018-06-29T13:07:06.082Z,58.07
2018-06-29T13:10:09.294Z,57.54
2018-06-29T13:11:41.024Z,58.14
2018-06-29T13:13:12.404Z,57.28
2018-06-29T13:14:44.723Z,57.05
2018-06-29T13:17:47.450Z,57.05
2018-06-29T13:19:18.731Z,56.11
2018-06-29T13:20:50.842Z,55.76
2018-06-29T13:22:21.895Z,55.92
2018-06-29T13:23:53.477Z,56.11
2018-06-29T13:25:25.270Z,55.56
2018-06-29T13:26:56.663Z,56.76
2018-06-29T13:28:28.551Z,56.98
2018-06-29T13:31:31.383Z,55.92
2018-06-29T13:33:02.990Z,55.58
2018-06-29T13:36:06.394Z,53.26
2018-06-29T13:37:37.810Z,53.55
2018-06-29T13:39:09.296Z,51.96
2018-06-29T13:40:41.077Z,50.31
2018-06-29T13:42:12.762Z,50.60
2018-06-29T13:43:44.096Z,51.35
2018-06-29T13:45:15.682Z,52.20
2018-06-29T13:46:47.261Z,53.85
2018-06-29T13:48:18.842Z,51.93
2018-06-29T13:49:50.426Z,51.74
2018-06-29T13:51:22.009Z,52.06
2018-06-29T13:52:53.541Z,52.00
2018-06-29T13:54:25.167Z,51.64
2018-06-29T13:57:28.670Z,51.64
2018-06-29T13:58:59.900Z,51.32
2018-06-29T14:02:03.059Z,52.85
2018-06-29T14:03:35.321Z,53.55
2018-06-29T14:05:06.198Z,53.58
2018-06-29T14:06:38.081Z,52.61
2018-06-29T14:08:09.400Z,51.81
2018-06-29T14:09:41.006Z,53.41
2018-06-29T14:11:12.528Z,51.37
2018-06-29T14:12:44.111Z,49.85
2018-06-29T14:14:15.695Z,51.42
2018-06-29T14:15:47.378Z,53.41
2018-06-29T14:17:19.065Z,53.26
2018-06-29T14:20:22.230Z,52.34
2018-06-29T14:21:53.745Z,52.56
2018-06-29T14:23:25.395Z,50.50
2018-06-29T14:24:56.980Z,50.70
2018-06-29T14:26:28.359Z,50.21
2018-06-29T14:29:31.728Z,50.50
2018-06-29T14:31:03.107Z,52.25
2018-06-29T14:32:34.691Z,50.87
2018-06-29T14:34:07.008Z,51.74
2018-06-29T14:35:38.839Z,52.06
2018-06-29T14:37:09.440Z,49.68
2018-06-29T14:38:41.234Z,49.56
2018-06-29T14:40:12.619Z,49.68
2018-06-29T14:43:15.954Z,48.90
2018-06-29T14:44:47.356Z,48.49
2018-06-29T14:46:19.507Z,49.58
2018-06-29T14:49:22.632Z,46.89
2018-06-29T14:50:53.893Z,47.81
2018-06-29T14:55:28.947Z,48.93
2018-06-29T14:57:00.296Z,46.23
2018-06-29T14:58:31.609Z,47.28
2018-06-29T15:00:03.726Z,47.88
2018-06-29T15:01:35.569Z,46.33
2018-06-29T15:03:06.361Z,46.91
2018-06-29T15:04:38.021Z,45.65
2018-06-29T15:07:41.922Z,46.91
2018-06-29T15:09:12.697Z,46.67
2018-06-29T15:10:44.281Z,46.11
2018-06-29T15:12:15.864Z,47.01
2018-06-29T15:13:47.751Z,45.18
2018-06-29T15:15:19.034Z,45.45
2018-06-29T15:16:50.825Z,46.25
2018-06-29T15:18:22.404Z,44.79
2018-06-29T15:19:53.829Z,45.41
2018-06-29T15:21:25.575Z,46.01
2018-06-29T15:22:56.955Z,45.04
2018-06-29T15:24:28.563Z,44.27
2018-06-29T15:26:00.123Z,44.58
2018-06-29T15:27:31.970Z,43.67
2018-06-29T15:29:03.296Z,43.33
2018-06-29T15:30:35.411Z,40.50
2018-06-29T15:32:06.564Z,42.00
2018-06-29T15:33:38.552Z,43.15
2018-06-29T15:35:09.631Z,43.57
2018-06-29T15:36:41.226Z,43.36
2018-06-29T15:38:13.103Z,41.32
2018-06-29T15:39:44.806Z,43.12
2018-06-29T15:41:16.273Z,43.40
2018-06-29T15:45:50.937Z,43.73
2018-06-29T15:47:22.308Z,42.18
2018-06-29T15:48:54.095Z,42.00
2018-06-29T15:50:25.476Z,41.98
2018-06-29T15:51:57.277Z,42.56
2018-06-29T15:53:29.177Z,42.36
2018-06-29T15:55:00.231Z,41.51
2018-06-29T15:56:31.815Z,42.19
2018-06-29T15:58:03.657Z,41.26
2018-06-29T16:01:06.570Z,41.20
2018-06-29T16:02:38.746Z,42.74
2018-06-29T16:04:10.110Z,42.18
2018-06-29T16:05:41.477Z,41.49
2018-06-29T16:08:44.491Z,41.20
2018-06-29T16:10:16.177Z,41.32
2018-06-29T16:13:19.452Z,39.03
2018-06-29T16:14:50.861Z,39.86
2018-06-29T16:16:22.636Z,42.49
2018-06-29T16:17:54.000Z,41.24
2018-06-29T16:19:25.588Z,40.73
2018-06-29T16:22:28.766Z,40.41
2018-06-29T16:27:03.717Z,40.06
2018-06-29T16:28:35.194Z,40.08
2018-06-29T16:30:06.679Z,39.82
2018-06-29T16:31:38.447Z,38.56
2018-06-29T16:33:09.918Z,40.19
2018-06-29T16:34:41.437Z,39.69
2018-06-29T16:36:13.019Z,38.67
2018-06-29T16:37:44.858Z,40.08
2018-06-29T16:39:16.714Z,41.05
2018-06-29T16:40:47.783Z,41.22
2018-06-29T16:42:19.903Z,40.93
2018-06-29T16:43:50.944Z,41.53
2018-06-29T16:45:22.575Z,42.24
2018-06-29T16:46:54.360Z,40.73
2018-06-29T16:49:57.398Z,41.53
2018-06-29T16:51:28.866Z,40.66
2018-06-29T16:53:00.459Z,38.67
2018-06-29T16:54:32.242Z,37.79
2018-06-29T16:56:03.621Z,37.52
2018-06-29T16:57:35.204Z,37.68
2018-06-29T16:59:06.788Z,37.58
2018-06-29T17:00:38.475Z,39.20
2018-06-29T17:03:41.544Z,39.31
2018-06-29T17:05:14.664Z,39.16
2018-06-29T17:06:44.712Z,38.07
2018-06-29T17:08:16.511Z,38.59
2018-06-29T17:09:47.908Z,37.33
2018-06-29T17:11:19.467Z,37.27
2018-06-29T17:12:51.053Z,37.23
2018-06-29T17:14:22.635Z,37.37
2018-06-29T17:15:54.852Z,37.48
2018-06-29T17:17:25.881Z,37.56
2018-06-29T17:18:57.775Z,38.65
2018-06-29T17:20:29.176Z,38.62
2018-06-29T17:22:00.669Z,38.56
2018-06-29T17:25:04.121Z,38.50
2018-06-29T17:28:07.023Z,37.29
2018-06-29T17:29:38.784Z,38.54
2018-06-29T17:31:10.064Z,37.60
2018-06-29T17:34:13.548Z,36.35
2018-06-29T17:35:45.021Z,37.46
2018-06-29T17:38:47.987Z,38.46
2018-06-29T17:40:19.569Z,37.52
2018-06-29T17:43:22.768Z,37.43
2018-06-29T17:44:54.557Z,35.38
2018-06-29T17:46:25.948Z,37.08
2018-06-29T17:47:57.867Z,37.26
2018-06-29T17:51:01.304Z,37.29
2018-06-29T17:54:04.126Z,36.80
2018-06-29T17:55:35.940Z,37.29
2018-06-29T17:57:07.116Z,36.88
2018-06-29T17:58:38.900Z,37.54
2018-06-29T18:01:41.742Z,33.65
2018-06-29T18:03:13.821Z,34.73
2018-06-29T18:04:44.908Z,35.59
2018-06-29T18:06:16.642Z,36.37
2018-06-29T18:07:48.287Z,34.91
2018-06-29T18:09:19.659Z,34.81
2018-06-29T18:12:22.837Z,35.28
2018-06-29T18:13:54.560Z,33.85
2018-06-29T18:15:26.093Z,35.42
2018-06-29T18:18:29.274Z,37.34
2018-06-29T18:20:00.751Z,37.08
2018-06-29T18:21:32.460Z,35.93
2018-06-29T18:23:04.118Z,35.26
2018-06-29T18:24:35.493Z,35.08
2018-06-29T18:26:07.708Z,35.06
2018-06-29T18:27:39.291Z,35.15
2018-06-29T18:30:41.848Z,35.05
2018-06-29T18:32:13.542Z,34.44
2018-06-29T18:33:45.054Z,34.47
2018-06-29T18:35:17.197Z,34.11
2018-06-29T18:36:48.691Z,33.62
2018-06-29T18:38:19.940Z,35.25
2018-06-29T18:39:51.522Z,35.80
2018-06-29T18:41:22.908Z,35.05
2018-06-29T18:42:54.681Z,35.63
2018-06-29T18:45:58.588Z,36.04
2018-06-29T18:47:29.536Z,34.69
2018-06-29T18:49:01.412Z,34.31
2018-06-29T18:50:32.401Z,32.48
2018-06-29T18:52:04.284Z,32.01
2018-06-29T18:53:35.564Z,31.62
2018-06-29T18:55:07.348Z,32.62
2018-06-29T18:56:38.931Z,32.96
2018-06-29T18:58:10.311Z,33.14
2018-06-29T18:59:42.039Z,35.25
2018-06-29T19:01:14.459Z,37.02
2018-06-29T19:02:45.064Z,36.18
2018-06-29T19:04:16.843Z,34.52
2018-06-29T19:05:48.223Z,33.83
2018-06-29T19:07:19.855Z,34.56
2018-06-29T19:08:51.386Z,35.28
2018-06-29T19:10:23.620Z,34.79
2018-06-29T19:11:55.426Z,34.86
2018-06-29T19:13:26.388Z,35.25
2018-06-29T19:14:57.824Z,36.77
2018-06-29T19:19:32.971Z,37.26
2018-06-29T19:21:04.076Z,37.45
2018-06-29T19:22:35.632Z,36.87
2018-06-29T19:24:07.406Z,38.05
2018-06-29T19:25:39.127Z,36.12
2018-06-29T19:27:10.368Z,35.55
2018-06-29T19:30:13.529Z,37.31
2018-06-29T19:33:16.903Z,40.11
2018-06-29T19:34:49.411Z,37.50
2018-06-29T19:36:19.855Z,37.81
2018-06-29T19:37:51.804Z,37.93
2018-06-29T19:39:23.018Z,37.04
2018-06-29T19:40:54.596Z,34.58
2018-06-29T19:42:26.481Z,37.50
2018-06-29T19:43:57.960Z,40.91
2018-06-29T19:45:29.440Z,41.69
2018-06-29T19:47:00.920Z,41.96
2018-06-29T19:51:35.663Z,47.17
2018-06-29T19:56:10.436Z,49.29
2018-06-29T19:59:13.569Z,51.97
2018-06-29T20:03:48.303Z,55.54
2018-06-29T20:05:20.284Z,56.97
2018-06-29T20:06:51.996Z,57.65
2018-06-29T20:09:54.624Z,57.14
2018-06-29T20:11:26.207Z,57.04
2018-06-29T20:12:57.781Z,57.11
2018-06-29T20:14:29.360Z,58.85
2018-06-29T20:16:00.941Z,60.66
2018-06-29T20:17:32.546Z,62.08
2018-06-29T20:19:04.102Z,63.79
2018-06-29T20:20:35.722Z,64.63
2018-06-29T20:22:07.254Z,66.43
2018-06-29T20:23:38.931Z,67.27
2018-06-29T20:25:10.410Z,67.36
2018-06-29T20:26:41.987Z,69.55
2018-06-29T20:28:13.564Z,70.42
2018-06-29T20:29:45.142Z,71.92
2018-06-29T20:31:16.723Z,72.79
2018-06-29T20:32:48.296Z,73.24
2018-06-29T20:34:19.920Z,74.40
2018-06-29T20:35:51.450Z,74.49
2018-06-29T20:37:23.027Z,75.61
2018-06-29T20:38:54.712Z,76.57
2018-06-29T20:40:26.180Z,76.38
2018-06-29T20:41:57.859Z,77.98
2018-06-29T20:43:29.332Z,78.94
2018-06-29T20:45:00.909Z,79.61
2018-06-29T20:46:32.484Z,80.19
2018-06-29T20:48:04.060Z,80.25
2018-06-29T20:49:35.697Z,80.44
2018-06-29T20:51:07.274Z,80.54
2018-06-29T20:52:38.788Z,80.63
2018-06-29T20:54:10.563Z,78.81
2018-06-29T20:55:41.996Z,79.53
2018-06-29T20:57:13.512Z,79.15
2018-06-29T20:58:45.087Z,80.25
2018-06-29T21:00:16.662Z,79.25
2018-06-29T21:01:48.237Z,77.71
2018-06-29T21:03:19.813Z,78.38
2018-06-29T21:04:51.410Z,76.65
2018-06-29T21:06:22.961Z,78.48
2018-06-29T21:07:54.536Z,79.63
2018-06-29T21:09:26.113Z,79.82
2018-06-29T21:10:57.685Z,79.82
2018-06-29T21:14:00.834Z,79.50
2018-06-29T21:15:32.411Z,80.84
2018-06-29T21:17:03.984Z,81.81
2018-06-29T21:18:35.557Z,82.29
2018-06-29T21:20:07.175Z,82.67
2018-06-29T21:21:38.705Z,83.73
2018-06-29T21:23:10.280Z,84.07
2018-06-29T21:24:41.854Z,84.26
2018-06-29T21:26:13.429Z,84.94
2018-06-29T21:27:45.002Z,84.03
2018-06-29T21:29:16.575Z,80.71